MV Finola — OULQ2 — position and weather

sailwx.info

Track history (hours):
 
Tides and Currents Weather Stations Pressure Air Temp Water Temp Dewpoint Dewpoint Depression Visibility Wind Speed Wind Dir Waves Ship Positions

MV Finola

Last reported at 2016-Nov-11 02:19 UTC. Time now 2016-Dec-10 03:08 UTC.
Position N 01°15' E 104°01'.
Warning: this ship's position is 29 days out of date.

Length 85 m; draft 3.4 m.

Type: Cargo ship. MMSI: 219483000.

Date/timePositionNaut miles runAvg speedWind from/ knotsBaromVisibWave heightAir tempDewpointWater temp
2016-Nov-11 02:19N 01°15' E 104°01'7 8.7
2016-Nov-11 01:33N 01°15' E 103°54'2 0.4
2016-Nov-10 20:32N 01°15' E 103°52'0 0.0
2016-Nov-10 18:32N 01°15' E 103°52'0 0.0
2016-Nov-10 16:33N 01°15' E 103°52'0 0.0
2016-Nov-10 15:33N 01°15' E 103°52'4 0.9
2016-Nov-10 11:28N 01°13' E 103°50'0 0.5
2016-Nov-10 10:33N 01°13' E 103°50'7 7.4
2016-Nov-10 09:33N 01°15' E 103°57'  
Track history (hours):
 
Tides and Currents Weather Stations Pressure Air Temp Water Temp Dewpoint Dewpoint Depression Visibility Wind Speed Wind Dir Waves Ship Positions

MV Finola

Last reported at 2016-Nov-11 02:19 UTC. Time now 2016-Dec-10 03:08 UTC.
Position N 01°15' E 104°01'.
Warning: this ship's position is 29 days out of date.

Length 85 m; draft 3.4 m.

Type: Cargo ship. MMSI: 219483000.

Date/timePositionNaut miles runAvg speedWind from/ knotsBaromVisibWave heightAir tempDewpointWater temp
2016-Nov-11 02:19N 01°15' E 104°01'7 8.7
2016-Nov-11 01:33N 01°15' E 103°54'2 0.4
2016-Nov-10 20:32N 01°15' E 103°52'0 0.0
2016-Nov-10 18:32N 01°15' E 103°52'0 0.0
2016-Nov-10 16:33N 01°15' E 103°52'0 0.0
2016-Nov-10 15:33N 01°15' E 103°52'4 0.9
2016-Nov-10 11:28N 01°13' E 103°50'0 0.5
2016-Nov-10 10:33N 01°13' E 103°50'7 7.4
2016-Nov-10 09:33N 01°15' E 103°57'  

Dump ship's entire track history